Portland, Oregon
Traffic Map
Current Weather Conditions
Portland, Oregon
Overcast
Overcast
56°
Feels Like: 56°
Wind Chill: 56° Ceiling: 2700
Heat Index: 56° Visibility: 10mi
Dew Point: 48° Wind: 5mph
Humidity: 75% Direction: 330° (NNW)
Pressure: 30.01in Gusts: 0mph
Raw Report DataKPDX 201153Z 33004KT 10SM BKN027 OVC035 13/09 A3001 RMK AO2 SLP162 T01330089 10144 20133 53005
Traffic Incident Summary
Active as of:
Severity:
Category:
InformationThere was an issue retrieving the traffic information for this location. Please try a different location or try again shortly.
Advertisements